Home   Weather   Serbia   Niš   Past weeks
Flag for Serbia

Past Weather in Niš, Serbia — Yesterday and Last 2 Weeks

Currently: 82 °F. Sunny. (Weather station: Nis Airport, Serbia). See more current weather

Past Weather in Niš — Graph

°F

Niš Temperature Yesterday

Maximum temperature yesterday: 90 °F (at 3:00 pm)
Minimum temperature yesterday: 63 °F (at 5:30 am)
Average temperature yesterday: 76 °F

High & Low Weather Summary for the Past Weeks

 TemperatureHumidityPressure
High95 °F (Jun 10, 3:00 pm)100% (Jun 3, 12:00 pm)30.12 "Hg (Jun 3, 12:00 pm)
Low52 °F (Jun 15, 5:00 am)29% (Jun 7, 4:30 pm)29.71 "Hg (Jun 10, 3:00 pm)
Average73 °F68%29.95 "Hg
* Reported Jun 3 10:00 am — Jun 18 10:00 am, Niš. Weather by CustomWeather, © 2024

Note: Actual official high and low records may vary slightly from our data, if they occured in-between our weather recording intervals... More about our weather records

Niš Weather History for the Previous 24 Hours

Scroll right to see more
 ConditionsComfort  
Time TempWeatherWind HumidityBarometerVisibility
10:00 am
Tue, Jun 18
81 °FSunny.1 mph62%30.09 "Hg10 mi
9:30 am79 °FSunny.1 mph61%30.09 "Hg10 mi
8:30 am75 °FSunny.1 mph69%30.12 "Hg10 mi
7:30 am70 °FSunny.1 mph83%30.12 "Hg10 mi
6:30 am68 °FSunny.1 mph83%30.09 "Hg10 mi
6:00 am66 °FSunny.2 mph88%30.09 "Hg10 mi
5:30 am64 °FSunny.2 mph88%30.09 "Hg10 mi
5:00 am64 °FSunny.3 mph88%30.09 "Hg10 mi
4:30 am64 °FClear.1 mph88%30.07 "Hg10 mi
4:00 am66 °FClear.No wind83%30.07 "Hg10 mi
3:30 am66 °FClear.No wind83%30.07 "Hg10 mi
3:00 am68 °FClear.1 mph78%30.07 "Hg10 mi
2:30 am68 °FClear.5 mph78%30.07 "Hg10 mi
2:00 am66 °FClear.5 mph83%30.07 "Hg10 mi
1:30 am68 °FClear.2 mph78%30.07 "Hg10 mi
1:00 am70 °FClear.No wind78%30.07 "Hg10 mi
12:30 am70 °FClear.2 mph78%30.07 "Hg10 mi
12:00 am72 °FClear.1 mph69%30.04 "Hg10 mi
11:30 pm
Mon, Jun 17
73 °FPassing clouds.3 mph69%30.04 "HgN/A
11:00 pm73 °FClear.No wind65%30.04 "Hg10 mi
10:30 pm75 °FPassing clouds.3 mph61%30.04 "HgN/A
10:00 pm77 °FClear.2 mph57%30.04 "Hg10 mi
9:30 pm79 °FClear.6 mph54%30.04 "Hg10 mi
9:00 pm79 °FPassing clouds.3 mph54%30.01 "HgN/A
8:30 pm81 °FPassing clouds.6 mph48%29.98 "HgN/A
8:00 pm82 °FPassing clouds.7 mph45%29.98 "HgN/A
7:30 pm84 °FSunny.8 mph45%29.98 "Hg10 mi
7:00 pm86 °FPassing clouds.9 mph43%29.98 "HgN/A
6:30 pm86 °FPassing clouds.12 mph40%29.98 "HgN/A
6:00 pm88 °FPassing clouds.13 mph38%29.98 "HgN/A
4:00 pm88 °FPassing clouds.9 mph40%29.98 "HgN/A
3:00 pm90 °FPassing clouds.5 mph41%29.98 "HgN/A
2:00 pm88 °FPassing clouds.5 mph43%29.98 "HgN/A
1:30 pm86 °FPassing clouds.6 mph46%29.98 "HgN/A
1:00 pm86 °FPassing clouds.6 mph49%29.98 "HgN/A
12:30 pm84 °FPassing clouds.7 mph51%30.01 "HgN/A
12:00 pm84 °FPassing clouds.5 mph51%30.01 "HgN/A
11:30 am82 °FSunny.5 mph55%30.01 "Hg10 mi
11:00 am82 °FSunny.1 mph55%30.01 "Hg10 mi
Weather by CustomWeather, © 2024

See weather overview